Sarahsville, Ohio
Current Conditions -  °F | °C
As of 9:53 AM on Saturday 25 Oct 2014 (Local Time) from KZZV Reporting Station
Overcast Overcast  
Wind Chill: 45°   Ceiling: 9000
Heat Index: 48°   Visibility: 10mi
Dew Point: 43°   Wind: 6mph
Humidity: 83%   Direction: 200°SSW
Pressure: 29.98"   Gusts: NA
Location:  39.81°N, 81.47°W
Report Text: KZZV 251353Z AUTO 20005KT 10SM OVC090 09/06 A2998 RMK AO2 SLP155 T00890061
Loading
Personal Weather Stations






























Interactive Weather Map
Tropical Storm Tracking
New forecast layout! Learn more

10-Day Weather Forecast

Advertisements
Track Severe Weather on mobile